Time;durP1;ratioP1;P1;durP2;ratioP2;P2;SDS_P1;SDS_P2;PMS_P1;PMS_P2;Temp;Humidity;BMP_temperature;BMP_pressure;BME280_temperature;BME280_humidity;BME280_pressure;Samples;Min_cycle;Max_cycle;Signal;HPM_P1;HPM_P2
2021/08/23 00:00:35;;;;;;;22.55;17.15;;;16.70;99.90;;;;;;4999418;28;20036;-57
2021/08/23 00:03:00;;;;;;;19.77;16.10;;;16.60;99.90;;;;;;5000469;28;20041;-55
2021/08/23 00:05:26;;;;;;;23.60;18.35;;;16.60;99.90;;;;;;4986779;28;20070;-56
2021/08/23 00:07:51;;;;;;;26.27;18.40;;;16.50;99.90;;;;;;4984096;28;20026;-53
2021/08/23 00:10:17;;;;;;;21.40;17.92;;;16.40;99.90;;;;;;4980143;28;20034;-57
2021/08/23 00:12:42;;;;;;;23.50;18.02;;;16.40;99.90;;;;;;4981495;28;20652;-56
2021/08/23 00:15:09;;;;;;;26.42;18.25;;;16.30;99.90;;;;;;4989802;28;20029;-56
2021/08/23 00:17:35;;;;;;;22.27;18.15;;;16.20;99.90;;;;;;4989487;28;20029;-57
2021/08/23 00:20:03;;;;;;;23.50;18.65;;;16.20;99.90;;;;;;4991082;28;20029;-57
2021/08/23 00:22:33;;;;;;;30.88;19.15;;;16.20;99.90;;;;;;4996648;28;20022;-57
2021/08/23 00:25:00;;;;;;;25.58;19.10;;;16.10;99.90;;;;;;4986424;28;20027;-51
2021/08/23 00:27:30;;;;;;;26.67;19.90;;;16.10;99.90;;;;;;4986283;28;20034;-55
2021/08/23 00:29:56;;;;;;;26.65;19.00;;;16.00;99.90;;;;;;4996572;28;20618;-56
2021/08/23 00:32:22;;;;;;;23.52;18.23;;;15.90;99.90;;;;;;4987001;28;20623;-53
2021/08/23 00:34:49;;;;;;;21.98;18.48;;;15.90;99.90;;;;;;4980434;28;20027;-57
2021/08/23 00:37:16;;;;;;;27.58;20.42;;;15.90;99.90;;;;;;4991372;28;20058;-56
2021/08/23 00:39:41;;;;;;;30.27;19.88;;;15.80;99.90;;;;;;4988523;28;20018;-53
2021/08/23 00:42:07;;;;;;;29.60;20.05;;;15.70;99.90;;;;;;4982721;28;20486;-56
2021/08/23 00:44:34;;;;;;;24.88;20.77;;;15.70;99.90;;;;;;4982494;28;20038;-55
2021/08/23 00:47:01;;;;;;;33.90;19.85;;;15.60;99.90;;;;;;4981855;28;20038;-49
2021/08/23 00:49:29;;;;;;;24.00;18.48;;;15.60;99.90;;;;;;4988474;28;20054;-57
2021/08/23 00:51:55;;;;;;;31.63;19.77;;;15.50;99.90;;;;;;4985737;28;20053;-56
2021/08/23 00:54:21;;;;;;;27.20;21.50;;;15.50;99.90;;;;;;4983292;28;20038;-49
2021/08/23 00:56:47;;;;;;;22.27;17.33;;;15.40;99.90;;;;;;4990906;28;20479;-55
2021/08/23 00:59:13;;;;;;;29.30;20.00;;;15.40;99.90;;;;;;4990323;28;20034;-56
2021/08/23 01:02:11;;;;;;;27.52;19.38;;;15.30;99.90;;;;;;4998490;28;20204;-57
2021/08/23 01:04:42;;;;;;;32.22;23.55;;;15.30;99.90;;;;;;4982617;28;20034;-54
2021/08/23 01:07:12;;;;;;;34.50;22.33;;;15.20;99.90;;;;;;5002993;28;20413;-57
2021/08/23 01:09:42;;;;;;;27.30;20.17;;;15.20;99.90;;;;;;5002337;28;20026;-56
2021/08/23 01:12:11;;;;;;;31.10;20.98;;;15.20;99.90;;;;;;4988025;28;20022;-57
2021/08/23 01:14:37;;;;;;;38.38;22.55;;;15.20;99.90;;;;;;4989929;28;20112;-57
2021/08/23 01:17:05;;;;;;;31.33;23.30;;;15.10;99.90;;;;;;4995198;28;20018;-55
2021/08/23 01:19:31;;;;;;;27.73;21.27;;;15.10;99.90;;;;;;4989966;28;20422;-58
2021/08/23 01:22:01;;;;;;;28.08;21.55;;;15.00;99.90;;;;;;5004939;28;20040;-56
2021/08/23 01:24:33;;;;;;;31.00;20.70;;;14.90;99.90;;;;;;4998186;28;20105;-58
2021/08/23 01:27:01;;;;;;;36.38;20.73;;;14.90;99.90;;;;;;4981396;28;20031;-51
2021/08/23 01:29:35;;;;;;;29.73;21.70;;;14.90;99.90;;;;;;4980785;28;20399;-58
2021/08/23 01:32:19;;;;;;;25.95;21.25;;;14.80;99.90;;;;;;4992662;28;20105;-57
2021/08/23 01:34:45;;;;;;;;;;;14.80;99.90;;;;;;4989325;28;20031;-57
2021/08/23 01:37:13;;;;;;;28.98;21.33;;;14.80;99.90;;;;;;5002474;28;20386;-58
2021/08/23 01:39:39;;;;;;;34.55;22.38;;;14.80;99.90;;;;;;4988669;28;20508;-54
2021/08/23 01:42:05;;;;;;;33.85;21.50;;;14.70;99.90;;;;;;4991934;28;20068;-57
2021/08/23 01:44:31;;;;;;;36.83;20.80;;;14.60;99.90;;;;;;4997436;28;20038;-53
2021/08/23 01:46:57;;;;;;;27.90;21.60;;;14.60;99.90;;;;;;4998509;28;20402;-56
2021/08/23 01:49:22;;;;;;;30.05;20.20;;;14.60;99.90;;;;;;5001788;28;20029;-56
2021/08/23 01:51:48;;;;;;;35.80;22.90;;;14.50;99.90;;;;;;4993693;28;20014;-57
2021/08/23 01:54:14;;;;;;;36.03;23.33;;;14.50;99.90;;;;;;4995834;28;20038;-55
2021/08/23 01:56:39;;;;;;;29.42;23.27;;;14.40;99.90;;;;;;5005165;28;20037;-55
2021/08/23 01:59:05;;;;;;;35.70;24.08;;;14.40;99.90;;;;;;5000935;28;20030;-54
2021/08/23 02:01:31;;;;;;;34.78;22.67;;;14.40;99.90;;;;;;4994003;28;20027;-57
2021/08/23 02:03:57;;;;;;;39.45;26.23;;;14.30;99.90;;;;;;4989263;28;20110;-55
2021/08/23 02:06:24;;;;;;;34.88;24.08;;;14.30;99.90;;;;;;4989825;28;20105;-55
2021/08/23 02:08:50;;;;;;;39.95;25.67;;;14.30;99.90;;;;;;4990559;28;20510;-56
2021/08/23 02:11:16;;;;;;;31.63;24.45;;;14.30;99.90;;;;;;5006138;28;20069;-57
2021/08/23 02:13:42;;;;;;;37.35;25.25;;;14.30;99.90;;;;;;5000618;28;20069;-58
2021/08/23 02:16:08;;;;;;;47.47;29.92;;;14.30;99.90;;;;;;5001494;28;20057;-58
2021/08/23 02:18:33;;;;;;;39.65;26.83;;;14.20;99.90;;;;;;5004234;28;20034;-57
2021/08/23 02:20:59;;;;;;;35.75;27.00;;;14.20;99.90;;;;;;4988179;28;20029;-57
2021/08/23 02:23:25;;;;;;;42.20;28.08;;;14.30;99.90;;;;;;4990265;28;20084;-57
2021/08/23 02:25:51;;;;;;;38.67;27.67;;;14.30;99.90;;;;;;4979946;28;20035;-56
2021/08/23 02:28:17;;;;;;;40.55;28.05;;;14.20;99.90;;;;;;4993581;28;20034;-55
2021/08/23 02:30:43;;;;;;;43.75;29.23;;;14.30;99.90;;;;;;4998509;28;20137;-55
2021/08/23 02:33:08;;;;;;;42.83;30.10;;;14.40;99.90;;;;;;4992679;28;20029;-58
2021/08/23 02:35:34;;;;;;;43.15;28.13;;;14.50;99.90;;;;;;4987814;28;20039;-57
2021/08/23 02:37:59;;;;;;;45.08;28.95;;;14.60;99.90;;;;;;5000753;28;20045;-54
2021/08/23 02:40:25;;;;;;;42.45;28.98;;;14.70;99.90;;;;;;4987923;28;20030;-58
2021/08/23 02:42:50;;;;;;;45.85;29.67;;;14.80;99.90;;;;;;4995098;28;20031;-58
2021/08/23 02:45:16;;;;;;;45.60;29.95;;;14.90;99.90;;;;;;5006577;28;20037;-57
2021/08/23 02:47:42;;;;;;;40.30;29.73;;;15.00;99.90;;;;;;4991624;28;20026;-57
2021/08/23 02:50:09;;;;;;;44.67;29.17;;;15.00;99.90;;;;;;4989143;28;20034;-57
2021/08/23 02:52:35;;;;;;;38.60;28.15;;;15.10;99.90;;;;;;4985581;28;20031;-56
2021/08/23 02:55:03;;;;;;;41.45;28.33;;;15.10;99.90;;;;;;5001920;28;20034;-56
2021/08/23 02:57:28;;;;;;;44.50;30.30;;;15.20;99.90;;;;;;4994999;28;20039;-58
2021/08/23 02:59:54;;;;;;;43.85;29.20;;;15.20;99.90;;;;;;4986371;28;20037;-57
2021/08/23 03:02:19;;;;;;;40.25;27.80;;;15.30;99.90;;;;;;4987143;28;20023;-57
2021/08/23 03:04:45;;;;;;;40.10;29.05;;;15.30;99.90;;;;;;4991166;28;20038;-56
2021/08/23 03:07:10;;;;;;;42.03;27.95;;;15.30;99.90;;;;;;4994263;28;20031;-56
2021/08/23 03:09:36;;;;;;;34.22;25.27;;;15.40;99.90;;;;;;4997396;28;20026;-57
2021/08/23 03:12:02;;;;;;;37.97;26.05;;;15.40;99.90;;;;;;4995845;28;20031;-57
2021/08/23 03:14:27;;;;;;;39.22;26.75;;;15.40;99.90;;;;;;4980973;28;20018;-56
2021/08/23 03:16:53;;;;;;;41.10;26.73;;;15.40;99.90;;;;;;4993613;28;20043;-56
2021/08/23 03:19:18;;;;;;;41.00;27.30;;;15.40;99.90;;;;;;4994773;28;20057;-58
2021/08/23 03:21:44;;;;;;;37.08;26.83;;;15.40;99.90;;;;;;4994362;28;20034;-57
2021/08/23 03:24:11;;;;;;;45.78;28.95;;;15.40;99.90;;;;;;4990878;28;20060;-52
2021/08/23 03:26:38;;;;;;;38.28;26.58;;;15.40;99.90;;;;;;4982581;28;20026;-58
2021/08/23 03:29:03;;;;;;;43.33;28.25;;;15.40;99.90;;;;;;4987030;28;20134;-57
2021/08/23 03:31:29;;;;;;;42.47;27.30;;;15.40;99.90;;;;;;4986871;28;20145;-57
2021/08/23 03:33:55;;;;;;;38.42;26.02;;;15.50;99.90;;;;;;4987662;28;20139;-57
2021/08/23 03:36:20;;;;;;;38.83;27.23;;;15.50;99.90;;;;;;4987100;28;20376;-57
2021/08/23 03:38:47;;;;;;;43.33;26.48;;;15.50;99.90;;;;;;4997553;28;20396;-57
2021/08/23 03:41:16;;;;;;;38.45;26.83;;;15.60;99.90;;;;;;4988593;28;20403;-55
2021/08/23 03:43:42;;;;;;;38.25;25.65;;;15.60;99.90;;;;;;4978697;28;20125;-57
2021/08/23 03:46:07;;;;;;;36.50;25.17;;;15.60;99.90;;;;;;4989578;28;20053;-55
2021/08/23 03:48:33;;;;;;;40.85;27.70;;;15.60;99.90;;;;;;4984869;28;20031;-49
2021/08/23 03:50:59;;;;;;;37.20;27.20;;;15.60;99.90;;;;;;4996418;28;20558;-55
2021/08/23 03:53:24;;;;;;;38.72;25.50;;;15.60;99.90;;;;;;4993574;28;20046;-55
2021/08/23 03:55:50;;;;;;;37.53;26.25;;;15.60;99.90;;;;;;4986845;28;20039;-56
2021/08/23 03:58:15;;;;;;;37.08;25.58;;;15.60;99.90;;;;;;4994399;28;20019;-55
2021/08/23 04:00:41;;;;;;;35.53;25.95;;;15.70;99.90;;;;;;4989299;28;20457;-56
2021/08/23 04:03:07;;;;;;;34.00;23.88;;;15.70;99.90;;;;;;4982349;28;20030;-52
2021/08/23 04:05:32;;;;;;;39.65;27.33;;;15.70;99.90;;;;;;4982969;28;20520;-54
2021/08/23 04:07:58;;;;;;;42.65;27.05;;;15.70;99.90;;;;;;4991259;28;20030;-51
2021/08/23 04:10:23;;;;;;;36.25;26.30;;;15.70;99.90;;;;;;4998932;28;20061;-56
2021/08/23 04:12:49;;;;;;;44.83;27.65;;;15.60;99.90;;;;;;4997662;28;20126;-56
2021/08/23 04:15:14;;;;;;;40.10;26.08;;;15.70;99.90;;;;;;4996132;28;20117;-54
2021/08/23 04:17:40;;;;;;;43.15;24.73;;;15.70;99.90;;;;;;4985400;28;20034;-53
2021/08/23 04:20:06;;;;;;;38.60;26.90;;;15.70;99.90;;;;;;4989008;28;20038;-57
2021/08/23 04:22:31;;;;;;;41.25;27.15;;;15.70;99.90;;;;;;4982537;28;20049;-51
2021/08/23 04:24:57;;;;;;;41.38;25.40;;;15.70;99.90;;;;;;4994199;28;20483;-57
2021/08/23 04:27:23;;;;;;;41.05;24.70;;;15.70;99.90;;;;;;4985526;28;20034;-57
2021/08/23 04:29:49;;;;;;;35.72;26.00;;;15.70;99.90;;;;;;4987516;28;20022;-56
2021/08/23 04:32:14;;;;;;;41.22;26.27;;;15.70;99.90;;;;;;4985618;28;20041;-57
2021/08/23 04:34:40;;;;;;;39.85;26.92;;;15.70;99.90;;;;;;4987476;28;20030;-53
2021/08/23 04:37:05;;;;;;;40.72;27.08;;;15.80;99.90;;;;;;4995203;28;20091;-57
2021/08/23 04:39:33;;;;;;;39.25;27.00;;;15.80;99.90;;;;;;5000940;28;20040;-56
2021/08/23 04:41:59;;;;;;;42.60;28.17;;;15.80;99.90;;;;;;4993922;28;20037;-55
2021/08/23 04:44:25;;;;;;;43.47;28.02;;;15.80;99.90;;;;;;5003019;28;20034;-55
2021/08/23 04:46:51;;;;;;;42.35;26.73;;;15.80;99.90;;;;;;4997272;28;20033;-56
2021/08/23 04:49:17;;;;;;;39.42;27.23;;;15.80;99.90;;;;;;4999613;28;20034;-56
2021/08/23 04:51:43;;;;;;;42.13;27.00;;;15.80;99.90;;;;;;4989786;28;20093;-57
2021/08/23 04:54:08;;;;;;;38.20;26.88;;;15.80;99.90;;;;;;4979334;28;20085;-57
2021/08/23 04:56:34;;;;;;;41.45;27.92;;;15.70;99.90;;;;;;4986951;28;20062;-55
2021/08/23 04:58:59;;;;;;;43.58;26.25;;;15.60;99.90;;;;;;4982624;28;20018;-56
2021/08/23 05:01:25;;;;;;;43.17;26.80;;;15.60;99.90;;;;;;4986627;28;20547;-57
2021/08/23 05:03:50;;;;;;;42.25;26.05;;;15.60;99.90;;;;;;4983828;28;20034;-56
2021/08/23 05:06:16;;;;;;;41.05;26.30;;;15.50;99.90;;;;;;4997404;28;20030;-57
2021/08/23 05:08:42;;;;;;;40.92;26.65;;;15.50;99.90;;;;;;4984507;28;20042;-55
2021/08/23 05:11:07;;;;;;;41.88;25.52;;;15.60;99.90;;;;;;5002903;28;20030;-57
2021/08/23 05:13:33;;;;;;;33.28;22.45;;;15.50;99.90;;;;;;5003387;28;20030;-53
2021/08/23 05:15:59;;;;;;;27.15;20.70;;;15.60;99.90;;;;;;4999944;28;20101;-57
2021/08/23 05:18:24;;;;;;;28.55;20.02;;;15.70;99.90;;;;;;4985803;28;20530;-55
2021/08/23 05:20:50;;;;;;;35.85;23.45;;;15.80;99.90;;;;;;4989278;28;20050;-54
2021/08/23 05:23:16;;;;;;;36.85;24.05;;;15.90;99.90;;;;;;4989607;28;20022;-54
2021/08/23 05:25:41;;;;;;;32.78;21.95;;;16.00;99.90;;;;;;4990106;28;20472;-56
2021/08/23 05:28:07;;;;;;;32.85;23.40;;;16.00;99.90;;;;;;4999894;28;20510;-54
2021/08/23 05:30:33;;;;;;;34.05;22.48;;;16.10;99.90;;;;;;4996099;28;20028;-54
2021/08/23 05:32:59;;;;;;;36.03;23.35;;;16.30;99.90;;;;;;4982436;28;20105;-55
2021/08/23 05:35:25;;;;;;;26.45;20.67;;;16.50;99.90;;;;;;4986111;28;20110;-53
2021/08/23 05:37:50;;;;;;;24.35;18.30;;;16.90;99.90;;;;;;4992262;28;20042;-56
2021/08/23 05:40:17;;;;;;;22.52;17.77;;;17.30;99.90;;;;;;4989511;28;20029;-57
2021/08/23 05:42:43;;;;;;;26.23;17.50;;;17.50;99.90;;;;;;4997164;28;20029;-57
2021/08/23 05:45:09;;;;;;;23.25;17.77;;;17.80;99.90;;;;;;4996145;28;20035;-56
2021/08/23 05:47:37;;;;;;;19.70;17.00;;;18.00;99.90;;;;;;4985302;28;20082;-57
2021/08/23 05:50:03;;;;;;;22.17;16.80;;;18.10;99.90;;;;;;4991959;28;20411;-57
2021/08/23 05:52:28;;;;;;;22.70;16.83;;;18.50;99.90;;;;;;4997067;28;20037;-55
2021/08/23 05:54:54;;;;;;;22.30;16.67;;;18.70;99.90;;;;;;4984697;28;20465;-54
2021/08/23 05:57:21;;;;;;;26.63;18.27;;;18.90;99.90;;;;;;5000178;28;20022;-55
2021/08/23 05:59:46;;;;;;;19.35;15.50;;;19.10;99.90;;;;;;4991308;28;20054;-56
2021/08/23 06:02:12;;;;;;;20.50;16.02;;;18.90;99.90;;;;;;5005123;28;20050;-57
2021/08/23 06:04:38;;;;;;;17.77;14.88;;;18.90;99.90;;;;;;4989332;28;20038;-55
2021/08/23 06:07:05;;;;;;;22.55;17.65;;;18.80;99.90;;;;;;4984870;28;20022;-57
2021/08/23 06:09:31;;;;;;;22.08;17.92;;;18.70;99.90;;;;;;4992737;28;20030;-56
2021/08/23 06:11:57;;;;;;;23.98;18.70;;;18.60;99.90;;;;;;4997279;28;20026;-57
2021/08/23 06:14:22;;;;;;;22.27;17.77;;;18.50;99.90;;;;;;4985669;28;20488;-57
2021/08/23 06:16:48;;;;;;;25.98;17.98;;;18.40;99.90;;;;;;4985255;28;20042;-56
2021/08/23 06:19:13;;;;;;;24.02;19.20;;;18.20;99.90;;;;;;4990693;28;20022;-57
2021/08/23 06:21:39;;;;;;;29.85;20.65;;;18.00;99.90;;;;;;5003159;28;20026;-53
2021/08/23 06:24:04;;;;;;;24.30;18.83;;;18.10;99.90;;;;;;4990271;28;20034;-58
2021/08/23 06:26:30;;;;;;;22.55;19.30;;;18.60;99.90;;;;;;4996202;28;20121;-56
2021/08/23 06:28:56;;;;;;;19.42;16.77;;;18.90;99.90;;;;;;4998436;28;20031;-56
2021/08/23 06:31:23;;;;;;;19.38;16.92;;;19.00;99.90;;;;;;5001007;28;20412;-56
2021/08/23 06:33:49;;;;;;;18.42;16.45;;;19.10;99.90;;;;;;4992096;28;20057;-58
2021/08/23 06:36:15;;;;;;;23.10;17.88;;;19.20;99.90;;;;;;5006540;28;20046;-57
2021/08/23 06:38:40;;;;;;;22.35;16.33;;;19.10;99.90;;;;;;4992831;28;20033;-57
2021/08/23 06:41:06;;;;;;;19.45;15.50;;;19.30;99.90;;;;;;4998435;28;20601;-56
2021/08/23 06:43:31;;;;;;;20.85;15.05;;;19.30;99.90;;;;;;5003493;28;20379;-56
2021/08/23 06:45:57;;;;;;;32.05;16.92;;;19.20;99.90;;;;;;4983566;28;20033;-56
2021/08/23 06:48:22;;;;;;;15.40;13.27;;;19.30;99.90;;;;;;4993646;28;20103;-56
2021/08/23 06:50:48;;;;;;;16.27;13.85;;;19.50;99.90;;;;;;4999502;28;20073;-57
2021/08/23 06:53:14;;;;;;;18.65;14.43;;;19.80;99.90;;;;;;4997039;28;20022;-56
2021/08/23 06:55:39;;;;;;;15.70;13.55;;;19.80;99.90;;;;;;4990217;28;20030;-57
2021/08/23 06:58:05;;;;;;;19.70;15.63;;;19.60;99.90;;;;;;4982415;28;20022;-52
2021/08/23 07:00:30;;;;;;;17.98;14.40;;;19.50;99.90;;;;;;4965355;28;20124;-58
2021/08/23 07:02:56;;;;;;;14.82;13.23;;;19.40;99.90;;;;;;4994146;28;20507;-57
2021/08/23 07:05:22;;;;;;;14.38;12.20;;;19.30;99.90;;;;;;4986762;28;20049;-57
2021/08/23 07:07:48;;;;;;;15.80;13.25;;;19.30;99.90;;;;;;4990666;28;20121;-57
2021/08/23 07:10:14;;;;;;;13.57;12.18;;;19.20;99.90;;;;;;4981414;28;20034;-57
2021/08/23 07:12:41;;;;;;;13.00;11.68;;;19.10;99.90;;;;;;4980531;28;20037;-56
2021/08/23 07:15:07;;;;;;;12.10;10.75;;;19.10;99.90;;;;;;4982957;28;20041;-57
2021/08/23 07:17:33;;;;;;;13.65;12.25;;;19.00;99.90;;;;;;4975862;28;20022;-57
2021/08/23 07:19:58;;;;;;;12.63;10.15;;;18.70;99.90;;;;;;4994866;28;20491;-55
2021/08/23 07:22:24;;;;;;;11.85;8.77;;;18.60;99.90;;;;;;4994213;28;20035;-55
2021/08/23 07:24:50;;;;;;;10.82;9.40;;;18.60;99.90;;;;;;4982136;28;20030;-57
2021/08/23 07:27:16;;;;;;;11.02;8.82;;;18.40;99.90;;;;;;4981282;28;20029;-55
2021/08/23 07:29:41;;;;;;;10.68;8.13;;;18.30;99.90;;;;;;4976412;28;20038;-55
2021/08/23 07:32:08;;;;;;;14.57;8.85;;;18.20;99.90;;;;;;4986731;28;20100;-55
2021/08/23 07:34:34;;;;;;;14.35;8.35;;;18.20;99.90;;;;;;4986584;28;20440;-56
2021/08/23 07:36:59;;;;;;;10.60;8.57;;;18.30;99.90;;;;;;4987085;28;20033;-57
2021/08/23 07:39:25;;;;;;;10.02;9.02;;;18.30;99.90;;;;;;4993667;28;20026;-54
2021/08/23 07:41:51;;;;;;;9.95;8.85;;;18.50;99.90;;;;;;4989897;28;20101;-57
2021/08/23 07:44:16;;;;;;;12.45;9.05;;;18.70;99.90;;;;;;4988706;28;20030;-57
2021/08/23 07:46:42;;;;;;;10.45;8.52;;;18.80;99.90;;;;;;4982076;28;20042;-57
2021/08/23 07:49:07;;;;;;;10.60;9.27;;;19.30;99.90;;;;;;4994916;28;20471;-56
2021/08/23 07:51:33;;;;;;;16.08;9.82;;;19.90;99.90;;;;;;4999932;28;20534;-56
2021/08/23 07:53:59;;;;;;;12.00;9.45;;;20.60;99.90;;;;;;4995044;28;20022;-57
2021/08/23 07:56:25;;;;;;;11.13;9.05;;;21.20;99.90;;;;;;4988166;28;20517;-57
2021/08/23 07:58:50;;;;;;;13.73;8.68;;;21.60;99.90;;;;;;4988918;28;20023;-57
2021/08/23 08:01:16;;;;;;;10.63;7.93;;;21.80;99.90;;;;;;4966277;28;20042;-57
2021/08/23 08:03:42;;;;;;;10.40;8.13;;;22.50;99.90;;;;;;4980739;28;20035;-53
2021/08/23 08:06:07;;;;;;;16.48;10.77;;;22.60;99.90;;;;;;4979574;28;20033;-57
2021/08/23 08:08:33;;;;;;;13.05;10.40;;;22.40;99.90;;;;;;4980792;28;20499;-49
2021/08/23 08:10:59;;;;;;;10.93;8.60;;;22.10;99.90;;;;;;4977297;28;20479;-57
2021/08/23 08:13:25;;;;;;;8.82;7.93;;;21.70;99.90;;;;;;4985461;28;20031;-53
2021/08/23 08:15:51;;;;;;;14.65;8.95;;;21.40;99.90;;;;;;4982983;28;20054;-55
2021/08/23 08:18:16;;;;;;;11.85;9.18;;;21.00;99.90;;;;;;4987617;28;20518;-56
2021/08/23 08:20:42;;;;;;;14.40;11.30;;;20.80;99.90;;;;;;4983846;28;20033;-56
2021/08/23 08:23:08;;;;;;;14.52;11.38;;;20.80;99.90;;;;;;4985588;28;20030;-58
2021/08/23 08:25:33;;;;;;;17.02;13.32;;;20.40;99.90;;;;;;4986189;28;20038;-58
2021/08/23 08:27:59;;;;;;;17.30;12.85;;;20.10;99.90;;;;;;4994249;28;20037;-56
2021/08/23 08:30:25;;;;;;;15.63;12.70;;;20.10;99.90;;;;;;4987475;28;20031;-58
2021/08/23 08:32:51;;;;;;;14.57;12.73;;;20.00;99.90;;;;;;4987420;28;20061;-57
2021/08/23 08:35:16;;;;;;;15.80;11.88;;;19.90;99.90;;;;;;4982545;28;20031;-53
2021/08/23 08:37:42;;;;;;;14.35;10.68;;;19.90;99.90;;;;;;4985446;28;20034;-57
2021/08/23 08:40:10;;;;;;;17.55;12.50;;;20.30;99.90;;;;;;4990607;28;20026;-57
2021/08/23 08:42:35;;;;;;;18.65;11.60;;;20.50;99.90;;;;;;4988111;28;20058;-53
2021/08/23 08:45:01;;;;;;;16.35;11.32;;;20.40;99.90;;;;;;4976067;28;20053;-57
2021/08/23 08:47:29;;;;;;;16.10;11.57;;;20.30;99.90;;;;;;4985669;28;20373;-56
2021/08/23 08:49:57;;;;;;;14.93;11.52;;;20.00;99.90;;;;;;4984922;28;20116;-57
2021/08/23 08:52:23;;;;;;;16.48;13.40;;;20.10;99.90;;;;;;4981559;28;20072;-58
2021/08/23 08:54:49;;;;;;;17.05;12.40;;;19.80;99.90;;;;;;4982923;28;20034;-57
2021/08/23 08:57:15;;;;;;;15.57;12.90;;;19.70;99.90;;;;;;4984122;28;20140;-58
2021/08/23 08:59:41;;;;;;;15.23;11.68;;;19.80;99.90;;;;;;4988245;28;20591;-57
2021/08/23 09:02:07;;;;;;;15.48;12.35;;;19.90;99.90;;;;;;4980358;28;20038;-58
2021/08/23 09:04:37;;;;;;;16.42;12.10;;;20.40;99.90;;;;;;4996375;28;20484;-58
2021/08/23 09:07:05;;;;;;;17.08;12.35;;;20.60;99.90;;;;;;4981747;28;20018;-58
2021/08/23 09:09:31;;;;;;;14.85;11.27;;;21.00;99.90;;;;;;4995182;28;20499;-56
2021/08/23 09:12:03;;;;;;;17.50;12.20;;;21.30;99.90;;;;;;4993795;28;20044;-57
2021/08/23 09:14:29;;;;;;;12.02;10.35;;;21.10;99.90;;;;;;4992932;28;20038;-56
2021/08/23 09:17:03;;;;;;;15.75;13.45;;;21.00;99.90;;;;;;4980882;28;20037;-58
2021/08/23 09:19:29;;;;;;;16.48;11.98;;;20.80;99.90;;;;;;4994213;28;20023;-58
2021/08/23 09:21:58;;;;;;;18.35;13.98;;;20.40;99.90;;;;;;4984679;28;20441;-56
2021/08/23 09:24:23;;;;;;;19.50;14.43;;;20.30;99.90;;;;;;4997023;28;20067;-57
2021/08/23 09:26:49;;;;;;;18.38;14.57;;;20.00;99.90;;;;;;4989926;28;20034;-57
2021/08/23 09:29:15;;;;;;;18.05;15.10;;;19.90;99.90;;;;;;5007771;28;20113;-58
2021/08/23 09:31:41;;;;;;;18.40;13.45;;;20.00;99.90;;;;;;4983313;28;20033;-58
2021/08/23 09:34:14;;;;;;;15.93;12.15;;;20.00;99.90;;;;;;4982364;28;20029;-55
2021/08/23 09:36:39;;;;;;;14.75;12.00;;;20.20;99.90;;;;;;4987992;28;20105;-48
2021/08/23 09:39:07;;;;;;;13.90;10.55;;;20.20;99.90;;;;;;4988649;28;20110;-55
2021/08/23 09:41:40;;;;;;;14.15;10.95;;;20.10;99.90;;;;;;4996003;28;20088;-57
2021/08/23 09:44:11;;;;;;;13.32;10.75;;;20.30;99.90;;;;;;4986360;28;20026;-56
2021/08/23 09:46:38;;;;;;;14.25;11.50;;;20.30;99.90;;;;;;4988079;28;20034;-54
2021/08/23 09:49:07;;;;;;;11.35;10.15;;;20.50;99.90;;;;;;4978328;28;20037;-54
2021/08/23 09:51:39;;;;;;;12.82;10.82;;;20.50;99.90;;;;;;4981032;28;20088;-53
2021/08/23 09:54:09;;;;;;;12.07;10.70;;;20.30;99.90;;;;;;4982009;28;20022;-56
2021/08/23 09:56:41;;;;;;;13.52;10.35;;;20.30;99.90;;;;;;4989340;28;20033;-57
2021/08/23 09:59:08;;;;;;;14.23;10.30;;;20.20;99.90;;;;;;4987084;28;20080;-55
2021/08/23 10:01:35;;;;;;;13.30;10.32;;;20.30;99.90;;;;;;4965345;28;20053;-56
2021/08/23 10:04:06;;;;;;;12.20;9.70;;;20.50;99.90;;;;;;4983104;28;20027;-57
2021/08/23 10:06:37;;;;;;;11.40;9.27;;;20.60;99.90;;;;;;4995899;28;20520;-57
2021/08/23 10:09:04;;;;;;;12.32;9.15;;;20.80;99.90;;;;;;4989655;28;20030;-57
2021/08/23 10:11:33;;;;;;;9.15;7.97;;;21.20;99.90;;;;;;4985801;28;20109;-56
2021/08/23 10:14:01;;;;;;;10.80;7.90;;;22.20;99.90;;;;;;4999868;28;20030;-56
2021/08/23 10:16:28;;;;;;;11.27;8.73;;;22.40;99.90;;;;;;4986235;28;20517;-55
2021/08/23 10:18:54;;;;;;;9.35;7.65;;;22.50;99.90;;;;;;4991969;28;20639;-57
2021/08/23 10:21:21;;;;;;;12.13;8.60;;;22.00;99.90;;;;;;4985014;28;20034;-55
2021/08/23 10:23:51;;;;;;;9.52;8.07;;;21.60;99.90;;;;;;4997426;28;20021;-54
2021/08/23 10:26:18;;;;;;;14.65;8.95;;;21.30;99.90;;;;;;4986342;28;20077;-57
2021/08/23 10:28:50;;;;;;;11.23;7.78;;;21.40;99.90;;;;;;5001198;28;20038;-57
2021/08/23 10:31:18;;;;;;;11.27;7.82;;;21.60;99.90;;;;;;4984893;28;20034;-56
2021/08/23 10:33:46;;;;;;;9.27;7.03;;;21.70;99.90;;;;;;4985914;28;20030;-57
2021/08/23 10:36:13;;;;;;;11.38;7.22;;;21.60;99.90;;;;;;4986777;28;20034;-54
2021/08/23 10:38:39;;;;;;;13.57;7.07;;;21.40;99.90;;;;;;4989479;28;20507;-55
2021/08/23 10:41:10;;;;;;;9.10;6.45;;;21.30;99.90;;;;;;4998587;28;20037;-55
2021/08/23 10:43:46;;;;;;;9.05;6.65;;;20.90;99.90;;;;;;4994039;28;20464;-57
2021/08/23 10:46:22;;;;;;;11.05;6.45;;;20.90;99.90;;;;;;4983139;28;20041;-57
2021/08/23 10:48:49;;;;;;;10.32;6.82;;;20.60;99.90;;;;;;4984577;28;20049;-58
2021/08/23 10:51:36;;;;;;;9.60;6.25;;;20.50;99.90;;;;;;4976265;28;20118;-57
2021/08/23 10:54:22;;;;;;;8.20;5.82;;;20.90;99.90;;;;;;4984009;28;20022;-57
2021/08/23 10:57:11;;;;;;;7.78;5.90;;;21.00;99.90;;;;;;4993623;28;20103;-57
2021/08/23 10:59:51;;;;;;;9.07;6.68;;;20.90;99.90;;;;;;4992128;28;20520;-55
2021/08/23 11:02:33;;;;;;;7.93;5.90;;;20.50;99.90;;;;;;4977195;28;20117;-56
2021/08/23 11:05:07;;;;;;;7.72;5.63;;;20.40;99.90;;;;;;4985130;28;20026;-54
2021/08/23 11:07:32;;;;;;;;;;;20.50;99.90;;;;;;4993397;28;20042;-56
2021/08/23 11:10:08;;;;;;;10.80;6.00;;;20.60;99.90;;;;;;4990516;28;20394;-55
2021/08/23 11:12:50;;;;;;;8.45;6.28;;;20.50;99.90;;;;;;4981576;28;20054;-56
2021/08/23 11:15:35;;;;;;;7.88;6.40;;;20.60;99.90;;;;;;4977391;28;20035;-57
2021/08/23 11:18:08;;;;;;;12.00;6.72;;;20.90;99.90;;;;;;4990395;28;20041;-56
2021/08/23 11:20:40;;;;;;;8.43;6.63;;;21.30;99.90;;;;;;4992402;28;20018;-57
2021/08/23 11:23:11;;;;;;;12.52;6.68;;;21.70;99.90;;;;;;4986478;28;20271;-58
2021/08/23 11:25:43;;;;;;;9.23;6.60;;;22.10;99.90;;;;;;4984124;28;20039;-57
2021/08/23 11:28:15;;;;;;;10.07;7.55;;;22.20;99.90;;;;;;4987124;28;20113;-57
2021/08/23 11:30:43;;;;;;;8.15;6.28;;;22.10;99.90;;;;;;4988500;28;20050;-54
2021/08/23 11:33:10;;;;;;;10.43;7.78;;;21.90;99.90;;;;;;4991359;28;20491;-55
2021/08/23 11:35:37;;;;;;;8.82;6.50;;;21.50;99.90;;;;;;4988867;28;20034;-55
2021/08/23 11:38:08;;;;;;;9.45;7.78;;;21.40;99.90;;;;;;5003938;28;20076;-57
2021/08/23 11:40:36;;;;;;;9.70;8.18;;;21.30;99.90;;;;;;4985965;28;20023;-58
2021/08/23 11:43:04;;;;;;;10.88;7.60;;;21.10;99.90;;;;;;4990371;28;20022;-58
2021/08/23 11:45:34;;;;;;;9.15;7.15;;;21.10;99.90;;;;;;4996615;28;20030;-55
2021/08/23 11:47:59;;;;;;;8.52;6.63;;;21.30;99.90;;;;;;4996809;28;20113;-57
2021/08/23 11:50:26;;;;;;;10.02;7.82;;;21.40;99.90;;;;;;5000114;28;20121;-57
2021/08/23 11:52:55;;;;;;;11.52;8.40;;;21.60;99.90;;;;;;4990883;28;20034;-56
2021/08/23 11:55:28;;;;;;;10.45;7.43;;;21.60;99.90;;;;;;4984167;28;20037;-56
2021/08/23 11:58:04;;;;;;;9.80;7.60;;;21.80;99.90;;;;;;4984974;28;20035;-56
2021/08/23 12:00:29;;;;;;;11.50;7.68;;;21.90;99.90;;;;;;4986998;28;20035;-57
2021/08/23 12:03:05;;;;;;;12.63;7.60;;;21.80;99.90;;;;;;4970301;28;20038;-56
2021/08/23 12:05:38;;;;;;;10.50;7.05;;;21.80;99.90;;;;;;4978452;28;20488;-57
2021/08/23 12:08:05;;;;;;;9.30;6.88;;;21.80;99.90;;;;;;4981245;28;20077;-53
2021/08/23 12:10:33;;;;;;;8.65;7.47;;;22.10;99.90;;;;;;4986592;28;20037;-56
2021/08/23 12:13:26;;;;;;;10.20;7.32;;;22.20;99.90;;;;;;4997768;28;20022;-56
2021/08/23 12:15:51;;;;;;;12.88;7.57;;;21.90;99.90;;;;;;4981676;28;20038;-55
2021/08/23 12:18:18;;;;;;;12.55;8.80;;;21.40;99.90;;;;;;4983104;28;21715;-55
2021/08/23 12:21:17;;;;;;;14.93;8.40;;;21.40;99.90;;;;;;4984402;28;20109;-56
2021/08/23 12:23:54;;;;;;;11.70;8.52;;;21.20;99.90;;;;;;4954620;28;20046;-57
2021/08/23 12:26:52;;;;;;;10.63;8.73;;;20.80;99.90;;;;;;4985639;28;20029;-58
2021/08/23 12:29:25;;;;;;;19.08;9.88;;;20.70;99.90;;;;;;4985218;28;20521;-57
2021/08/23 12:32:08;;;;;;;11.05;8.90;;;20.60;99.90;;;;;;4988680;28;20419;-54